In Rescue
 
Open Full Screen Window  High Contrast Mode
Wind Gusting 17 knots
10
July 13, 2020 11:42 PM CDT
Weather Information
Wind Direction
  170 °
Wind Speed
  10 kt (12 mph)
Wind Gust
  17 kt (20 mph)
Altimeter
29.76 in
Visibility
10 SM
Temperature
27° C
81° F
Dewpoint
18° C
64° F
Humidity
58%
1hr Rain Fall
00.00 in.
24hr Rain Fall
00.00 in.
Sky Condition
Scattered @ 6,000 ft
VFR

METAR KCBG 140442Z AUTO 17010G17KT 10SM SCT060 27/18 A2976 RMK AO2

FAA Disclaimer: The data displayed is for advisory purposes only and is not to be used for flight planning or operations.